createdAt,value
2024-01-07T00:00:02.293Z,85.25
2024-01-07T00:05:02.547Z,85.24
2024-01-07T00:10:03.013Z,85.22
2024-01-07T00:15:02.414Z,85.25
2024-01-07T00:20:02.790Z,85.23
2024-01-07T00:25:03.140Z,85.2
2024-01-07T00:30:02.478Z,85.25
2024-01-07T00:35:02.907Z,85.25
2024-01-07T00:40:02.324Z,85.27
2024-01-07T00:45:02.725Z,85.26
2024-01-07T00:50:03.049Z,85.27
2024-01-07T00:55:02.334Z,85.27
2024-01-07T01:00:02.572Z,85.23
2024-01-07T01:05:02.585Z,85.26
2024-01-07T01:10:02.994Z,85.24
2024-01-07T01:15:02.235Z,85.23
2024-01-07T01:20:02.826Z,85.23
2024-01-07T01:25:03.306Z,85.26
2024-01-07T01:30:02.692Z,85.23
2024-01-07T01:35:03.001Z,85.23
2024-01-07T01:40:02.538Z,85.23
2024-01-07T01:45:02.916Z,85.28
2024-01-07T01:50:02.376Z,85.28
2024-01-07T01:55:02.830Z,85.27
2024-01-07T02:00:03.383Z,85.27
2024-01-07T02:05:03.071Z,85.25
2024-01-07T02:10:02.549Z,85.28
2024-01-07T02:15:02.941Z,85.28
2024-01-07T02:20:02.192Z,85.27
2024-01-07T02:25:02.675Z,85.27
2024-01-07T02:30:03.069Z,85.27
2024-01-07T02:35:02.369Z,85.29
2024-01-07T02:40:02.841Z,85.29
2024-01-07T02:45:03.276Z,85.29
2024-01-07T02:50:02.725Z,85.29
2024-01-07T02:55:03.314Z,85.27
2024-01-07T03:00:02.673Z,85.28
2024-01-07T03:05:03.148Z,85.28
2024-01-07T03:10:02.525Z,85.28
2024-01-07T03:15:02.757Z,85.27
2024-01-07T03:20:03.098Z,85.27
2024-01-07T03:25:02.413Z,85.29
2024-01-07T03:30:02.866Z,85.33
2024-01-07T03:35:03.260Z,85.33
2024-01-07T03:40:02.654Z,85.34
2024-01-07T03:45:03.058Z,85.32
2024-01-07T03:50:02.298Z,85.34
2024-01-07T03:55:02.622Z,85.33
2024-01-07T04:00:03.042Z,85.32
2024-01-07T04:05:02.381Z,85.32
2024-01-07T04:10:02.776Z,85.34
2024-01-07T04:15:03.151Z,85.35
2024-01-07T04:20:02.516Z,85.35
2024-01-07T04:25:02.993Z,85.34
2024-01-07T04:30:02.343Z,85.33
2024-01-07T04:35:02.671Z,85.31
2024-01-07T04:40:02.961Z,85.3
2024-01-07T04:45:02.343Z,85.33
2024-01-07T04:50:02.720Z,85.31
2024-01-07T04:55:03.123Z,85.31
2024-01-07T05:00:02.479Z,85.3
2024-01-07T05:05:02.831Z,85.32
2024-01-07T05:10:03.140Z,85.32
2024-01-07T05:15:02.483Z,85.29
2024-01-07T05:20:02.962Z,85.33
2024-01-07T05:25:02.446Z,85.33
2024-01-07T05:30:02.726Z,85.32
2024-01-07T05:35:03.160Z,85.32
2024-01-07T05:40:02.617Z,85.32
2024-01-07T05:45:03.049Z,85.32
2024-01-07T05:50:02.467Z,85.33
2024-01-07T05:55:02.845Z,85.31
2024-01-07T06:00:03.240Z,85.31
2024-01-07T06:05:02.637Z,85.3
2024-01-07T06:10:02.910Z,85.31
2024-01-07T06:15:02.359Z,85.29
2024-01-07T06:20:02.720Z,85.29
2024-01-07T06:25:06.685Z,85.31
2024-01-07T06:30:02.422Z,85.3
2024-01-07T06:35:02.756Z,85.3
2024-01-07T06:40:03.164Z,85.29
2024-01-07T06:45:02.452Z,85.32
2024-01-07T06:50:02.734Z,85.31
2024-01-07T06:55:03.245Z,85.31
2024-01-07T07:00:02.520Z,85.31
2024-01-07T07:05:02.814Z,85.31
2024-01-07T07:10:03.378Z,85.31
2024-01-07T07:15:02.821Z,85.31
2024-01-07T07:20:03.342Z,85.28
2024-01-07T07:25:02.963Z,85.29
2024-01-07T07:30:02.422Z,85.3
2024-01-07T07:35:02.685Z,85.31
2024-01-07T07:40:02.989Z,85.27
2024-01-07T07:45:02.250Z,85.27
2024-01-07T07:50:02.642Z,85.29
2024-01-07T07:55:03.107Z,85.3
2024-01-07T08:00:04.733Z,85.3
2024-01-07T08:05:02.546Z,85.29
2024-01-07T08:10:02.947Z,85.31
2024-01-07T08:15:02.313Z,85.27
2024-01-07T08:20:02.923Z,85.3
2024-01-07T08:25:02.486Z,85.32
2024-01-07T08:30:02.829Z,85.32
2024-01-07T08:35:03.231Z,85.31
2024-01-07T08:40:02.838Z,85.31
2024-01-07T08:45:02.318Z,85.31
2024-01-07T08:50:02.540Z,85.27
2024-01-07T08:55:02.827Z,85.31
2024-01-07T09:00:03.115Z,85.3
2024-01-07T09:05:02.328Z,85.3
2024-01-07T09:10:02.853Z,85.31
2024-01-07T09:15:03.259Z,85.29
2024-01-07T09:20:02.702Z,85.28
2024-01-07T09:25:03.105Z,85.31
2024-01-07T09:30:02.503Z,85.29
2024-01-07T09:35:02.975Z,85.28
2024-01-07T09:40:02.379Z,85.26
2024-01-07T09:45:02.747Z,85.26
2024-01-07T09:50:03.004Z,85.26
2024-01-07T09:55:04.308Z,85.23
2024-01-07T10:00:02.590Z,85.24
2024-01-07T10:05:02.847Z,85.23
2024-01-07T10:10:03.067Z,85.24
2024-01-07T10:15:02.466Z,85.27
2024-01-07T10:20:02.840Z,85.26
2024-01-07T10:25:03.268Z,85.26
2024-01-07T10:30:02.673Z,85.24
2024-01-07T10:35:03.227Z,85.24
2024-01-07T10:40:02.643Z,85.27
2024-01-07T10:45:02.977Z,85.25
2024-01-07T10:50:02.556Z,85.25
2024-01-07T10:55:03.149Z,85.23
2024-01-07T11:00:02.522Z,85.23
2024-01-07T11:05:06.019Z,85.24
2024-01-07T11:10:02.380Z,85.21
2024-01-07T11:15:02.741Z,85.2
2024-01-07T11:20:03.264Z,85.21
2024-01-07T11:25:02.756Z,85.18
2024-01-07T11:30:03.128Z,85.17
2024-01-07T11:35:02.811Z,85.16
2024-01-07T11:40:03.474Z,85.19
2024-01-07T11:45:02.960Z,85.21
2024-01-07T11:50:02.505Z,85.21
2024-01-07T11:55:03.053Z,85.23
2024-01-07T12:00:02.435Z,85.22
2024-01-07T12:05:02.844Z,85.21
2024-01-07T12:10:03.224Z,85.21
2024-01-07T12:15:02.759Z,85.21
2024-01-07T12:20:03.153Z,85.2
2024-01-07T12:25:02.493Z,85.18
2024-01-07T12:30:02.862Z,85.17
2024-01-07T12:35:03.566Z,85.17
2024-01-07T12:40:03.181Z,85.15
2024-01-07T12:45:02.528Z,85.17
2024-01-07T12:50:02.968Z,85.14
2024-01-07T12:55:02.393Z,85.17
2024-01-07T13:00:02.683Z,85.2
2024-01-07T13:05:03.256Z,85.18
2024-01-07T13:10:02.892Z,85.21
2024-01-07T13:15:03.163Z,85.19
2024-01-07T13:20:02.459Z,85.17
2024-01-07T13:25:02.877Z,85.18
2024-01-07T13:30:02.178Z,85.2
2024-01-07T13:35:10.834Z,85.18
2024-01-07T13:40:03.277Z,85.14
2024-01-07T13:45:02.597Z,85.14
2024-01-07T13:50:03.307Z,85.13
2024-01-07T13:55:02.714Z,85.12
2024-01-07T14:00:03.041Z,85.15
2024-01-07T14:05:02.385Z,85.14
2024-01-07T14:10:02.936Z,85.13
2024-01-07T14:15:02.539Z,85.15
2024-01-07T14:20:02.867Z,85.15
2024-01-07T14:25:03.237Z,85.12
2024-01-07T14:30:02.497Z,85.13
2024-01-07T14:35:03.181Z,85.1
2024-01-07T14:40:02.620Z,85.12
2024-01-07T14:45:03.070Z,85.12
2024-01-07T14:50:03.140Z,85.13
2024-01-07T14:55:02.946Z,85.11
2024-01-07T15:00:02.394Z,85.11
2024-01-07T15:05:02.809Z,85.1
2024-01-07T15:10:02.292Z,85.11
2024-01-07T15:15:02.531Z,85.11
2024-01-07T15:20:03.634Z,85.11
2024-01-07T15:25:03.684Z,85.08
2024-01-07T15:30:03.571Z,85.07
2024-01-07T15:35:03.892Z,85.08
2024-01-07T15:40:03.420Z,85.09
2024-01-07T15:45:02.842Z,85.1
2024-01-07T15:50:03.245Z,85.08
2024-01-07T15:55:02.682Z,85.06
2024-01-07T16:00:03.097Z,85.05
2024-01-07T16:05:02.493Z,85.07
2024-01-07T16:10:02.849Z,85.07
2024-01-07T16:15:03.179Z,85.08
2024-01-07T16:20:02.632Z,85.13
2024-01-07T16:25:02.944Z,85.12
2024-01-07T16:30:02.234Z,85.12
2024-01-07T16:35:02.775Z,85.16
2024-01-07T16:40:03.121Z,85.13
2024-01-07T16:45:02.395Z,85.16
2024-01-07T16:50:21.127Z,85.15
2024-01-07T16:55:02.559Z,85.17
2024-01-07T17:00:02.826Z,85.14
2024-01-07T17:05:03.277Z,85.12
2024-01-07T17:10:02.642Z,85.1
2024-01-07T17:15:02.969Z,85.08
2024-01-07T17:20:02.628Z,85.07
2024-01-07T17:25:03.036Z,85.07
2024-01-07T17:30:02.561Z,85.07
2024-01-07T17:35:02.983Z,85.05
2024-01-07T17:40:02.402Z,85.04
2024-01-07T17:45:02.746Z,85.03
2024-01-07T17:50:03.054Z,85.0
2024-01-07T17:55:02.353Z,85.0
2024-01-07T18:00:02.788Z,85.03
2024-01-07T18:05:03.149Z,85.0
2024-01-07T18:10:02.560Z,84.99
2024-01-07T18:15:02.800Z,84.99
2024-01-07T18:20:03.175Z,85.0
2024-01-07T18:25:02.512Z,84.97
2024-01-07T18:30:02.909Z,84.96
2024-01-07T18:35:03.464Z,84.98
2024-01-07T18:40:03.131Z,84.94
2024-01-07T18:45:03.703Z,84.94
2024-01-07T18:50:03.052Z,84.95
2024-01-07T18:55:02.474Z,84.96
2024-01-07T19:00:02.760Z,84.95
2024-01-07T19:05:03.259Z,84.98
2024-01-07T19:10:02.661Z,84.92
2024-01-07T19:15:02.989Z,84.96
2024-01-07T19:20:02.428Z,84.92
2024-01-07T19:25:02.880Z,84.93
2024-01-07T19:30:03.160Z,84.94
2024-01-07T19:35:04.015Z,84.94
2024-01-07T19:40:02.331Z,84.91
2024-01-07T19:45:02.699Z,84.94
2024-01-07T19:50:03.013Z,84.94
2024-01-07T19:55:02.669Z,84.94
2024-01-07T20:00:03.017Z,84.94
2024-01-07T20:05:04.810Z,84.94
2024-01-07T20:10:02.997Z,84.92
2024-01-07T20:15:02.272Z,84.92
2024-01-07T20:20:02.619Z,84.9
2024-01-07T20:25:02.913Z,84.94
2024-01-07T20:30:03.186Z,84.89
2024-01-07T20:35:02.479Z,84.94
2024-01-07T20:40:02.775Z,84.92
2024-01-07T20:45:03.076Z,84.9
2024-01-07T20:50:02.586Z,84.9
2024-01-07T20:55:02.945Z,84.93
2024-01-07T21:00:02.214Z,84.89
2024-01-07T21:05:05.115Z,84.91
2024-01-07T21:10:03.997Z,84.91
2024-01-07T21:15:02.317Z,84.9
2024-01-07T21:20:02.506Z,84.9
2024-01-07T21:25:02.849Z,84.95
2024-01-07T21:30:03.134Z,84.95
2024-01-07T21:35:02.381Z,84.98
2024-01-07T21:40:03.496Z,84.97
2024-01-07T21:45:02.900Z,84.96
2024-01-07T21:50:03.328Z,84.99
2024-01-07T21:55:02.721Z,84.96
2024-01-07T22:00:03.028Z,84.99
2024-01-07T22:05:02.450Z,85.02
2024-01-07T22:10:02.789Z,85.02
2024-01-07T22:15:03.160Z,85.01
2024-01-07T22:20:02.516Z,85.02
2024-01-07T22:25:02.870Z,85.02
2024-01-07T22:30:03.272Z,85.02
2024-01-07T22:35:02.761Z,85.04
2024-01-07T22:40:03.130Z,85.03
2024-01-07T22:45:02.568Z,85.04
2024-01-07T22:50:02.999Z,85.05
2024-01-07T22:55:02.313Z,85.05
2024-01-07T23:00:02.913Z,85.06
2024-01-07T23:05:02.523Z,85.06
2024-01-07T23:10:02.900Z,85.06
2024-01-07T23:15:03.246Z,85.04
2024-01-07T23:20:02.628Z,85.08
2024-01-07T23:25:03.000Z,85.04
2024-01-07T23:30:02.593Z,85.07
2024-01-07T23:35:03.072Z,85.07
2024-01-07T23:40:02.441Z,85.08
2024-01-07T23:45:02.714Z,85.07
2024-01-07T23:50:02.950Z,85.04
2024-01-07T23:55:02.172Z,85.04
